createdAt,value
2023-02-24T00:00:25.536Z,9.745414
2023-02-24T00:01:25.533Z,9.745288
2023-02-24T00:02:25.552Z,9.745745
2023-02-24T00:03:25.621Z,9.745586
2023-02-24T00:04:25.524Z,9.745267
2023-02-24T00:05:25.508Z,9.745223
2023-02-24T00:06:25.482Z,9.745547
2023-02-24T00:07:25.476Z,9.745702
2023-02-24T00:08:25.471Z,9.745651
2023-02-24T00:09:25.482Z,9.745417
2023-02-24T00:10:25.453Z,9.745480
2023-02-24T00:11:25.444Z,9.745465
2023-02-24T00:12:25.462Z,9.745424
2023-02-24T00:13:25.427Z,9.745154
2023-02-24T00:14:25.458Z,9.745264
2023-02-24T00:15:25.420Z,9.745348
2023-02-24T00:16:25.519Z,9.745446
2023-02-24T00:17:25.410Z,9.745675
2023-02-24T00:18:25.382Z,9.745559
2023-02-24T00:19:25.404Z,9.745566
2023-02-24T00:20:25.362Z,9.745440
2023-02-24T00:21:25.359Z,9.745507
2023-02-24T00:22:25.353Z,9.745491
2023-02-24T00:23:25.339Z,9.745431
2023-02-24T00:24:25.354Z,9.745533
2023-02-24T00:25:25.325Z,9.745794
2023-02-24T00:26:25.325Z,9.745990
2023-02-24T00:27:25.308Z,9.745690
2023-02-24T00:28:25.308Z,9.745701
2023-02-24T00:29:25.320Z,9.745544
2023-02-24T00:30:25.293Z,9.745549
2023-02-24T00:31:25.836Z,9.745767
2023-02-24T00:32:25.543Z,9.745490
2023-02-24T00:33:25.283Z,9.745420
2023-02-24T00:34:25.307Z,9.745421
2023-02-24T00:35:25.258Z,9.745468
2023-02-24T00:36:25.249Z,9.745513
2023-02-24T00:37:25.249Z,9.745545
2023-02-24T00:38:26.238Z,9.745457
2023-02-24T00:39:25.230Z,9.745646
2023-02-24T00:40:25.242Z,9.745650
2023-02-24T00:41:25.219Z,9.745420
2023-02-24T00:42:25.210Z,9.745628
2023-02-24T00:43:25.200Z,9.745776
2023-02-24T00:44:25.196Z,9.745555
2023-02-24T00:45:25.210Z,9.745423
2023-02-24T00:46:25.182Z,9.745395
2023-02-24T00:47:25.186Z,9.745296
2023-02-24T00:48:25.163Z,9.745512
2023-02-24T00:49:25.152Z,9.745537
2023-02-24T00:50:25.169Z,9.745481
2023-02-24T00:51:25.137Z,9.745594
2023-02-24T00:52:25.131Z,9.745533
2023-02-24T00:53:25.127Z,9.745513
2023-02-24T00:54:25.115Z,9.745541
2023-02-24T00:55:25.131Z,9.745382
2023-02-24T00:56:25.109Z,9.745294
2023-02-24T00:57:25.094Z,9.745321
2023-02-24T00:58:25.076Z,9.745255
2023-02-24T00:59:26.082Z,9.745443
2023-02-24T01:00:25.090Z,9.745758
2023-02-24T01:01:25.073Z,9.745348
2023-02-24T01:02:25.062Z,9.745258
2023-02-24T01:03:25.046Z,9.745349
2023-02-24T01:04:25.037Z,9.745388
2023-02-24T01:05:25.056Z,9.745443
2023-02-24T01:06:25.021Z,9.745314
2023-02-24T01:07:25.009Z,9.745421
2023-02-24T01:08:25.011Z,9.745348
2023-02-24T01:09:25.000Z,9.745515
2023-02-24T01:10:25.008Z,9.745594
2023-02-24T01:11:24.984Z,9.745540
2023-02-24T01:12:24.973Z,9.745523
2023-02-24T01:13:24.964Z,9.745832
2023-02-24T01:14:24.959Z,9.745702
2023-02-24T01:15:24.972Z,9.745649
2023-02-24T01:16:25.017Z,9.745489
2023-02-24T01:17:24.930Z,9.745541
2023-02-24T01:18:24.942Z,9.745531
2023-02-24T01:19:24.917Z,9.745703
2023-02-24T01:20:24.928Z,9.745717
2023-02-24T01:21:24.904Z,9.745393
2023-02-24T01:22:24.891Z,9.745539
2023-02-24T01:23:24.889Z,9.745599
2023-02-24T01:24:24.880Z,9.745254
2023-02-24T01:25:24.897Z,9.743918
2023-02-24T01:26:24.860Z,9.744761
2023-02-24T01:27:24.887Z,9.744949
2023-02-24T01:28:24.843Z,9.744997
2023-02-24T01:29:24.837Z,9.745007
2023-02-24T01:30:24.854Z,9.745020
2023-02-24T01:31:25.394Z,9.745582
2023-02-24T01:32:24.993Z,9.745029
2023-02-24T01:33:25.924Z,9.744812
2023-02-24T01:34:24.802Z,9.745059
2023-02-24T01:35:24.815Z,9.745118
2023-02-24T01:36:24.780Z,9.744985
2023-02-24T01:37:24.778Z,9.745521
2023-02-24T01:38:24.766Z,9.744891
2023-02-24T01:39:24.772Z,9.745142
2023-02-24T01:40:24.782Z,9.745983
2023-02-24T01:41:24.749Z,9.746572
2023-02-24T01:42:24.741Z,9.745219
2023-02-24T01:43:24.727Z,9.745302
2023-02-24T01:44:24.724Z,9.745291
2023-02-24T01:45:24.785Z,9.745123
2023-02-24T01:46:24.755Z,9.745020
2023-02-24T01:47:24.705Z,9.745164
2023-02-24T01:48:24.709Z,9.745392
2023-02-24T01:49:24.688Z,9.745490
2023-02-24T01:50:24.721Z,9.745186
2023-02-24T01:51:24.680Z,9.744938
2023-02-24T01:52:24.673Z,9.745634
2023-02-24T01:53:24.658Z,9.745410
2023-02-24T01:54:24.648Z,9.745007
2023-02-24T01:55:24.683Z,9.745137
2023-02-24T01:56:24.633Z,9.745120
2023-02-24T01:57:24.628Z,9.745059
2023-02-24T01:58:24.624Z,9.745436
2023-02-24T01:59:24.627Z,9.745257
2023-02-24T02:00:24.637Z,9.745244
2023-02-24T02:01:24.663Z,9.745225
2023-02-24T02:02:24.655Z,9.745386
2023-02-24T02:03:24.601Z,9.745814
2023-02-24T02:04:24.580Z,9.745652
2023-02-24T02:05:24.567Z,9.745552
2023-02-24T02:06:24.584Z,9.745443
2023-02-24T02:07:24.556Z,9.745483
2023-02-24T02:08:24.556Z,9.745583
2023-02-24T02:09:24.536Z,9.745382
2023-02-24T02:10:24.545Z,9.745436
2023-02-24T02:11:24.542Z,9.745279
2023-02-24T02:12:24.539Z,9.745772
2023-02-24T02:13:24.605Z,9.745714
2023-02-24T02:14:24.508Z,9.745914
2023-02-24T02:15:24.502Z,9.745300
2023-02-24T02:16:24.561Z,9.745523
2023-02-24T02:17:24.483Z,9.745390
2023-02-24T02:18:24.463Z,9.745587
2023-02-24T02:19:24.463Z,9.745478
2023-02-24T02:20:24.449Z,9.745664
2023-02-24T02:21:24.469Z,9.745525
2023-02-24T02:22:24.436Z,9.745606
2023-02-24T02:23:24.424Z,9.745411
2023-02-24T02:24:24.416Z,9.745215
2023-02-24T02:25:24.409Z,9.745349
2023-02-24T02:26:24.423Z,9.745423
2023-02-24T02:27:24.384Z,9.745413
2023-02-24T02:28:25.385Z,9.745150
2023-02-24T02:29:24.387Z,9.745487
2023-02-24T02:30:24.370Z,9.744883
2023-02-24T02:31:25.124Z,9.745080
2023-02-24T02:32:24.512Z,9.745155
2023-02-24T02:33:24.353Z,9.745214
2023-02-24T02:34:24.340Z,9.745230
2023-02-24T02:35:24.339Z,9.745573
2023-02-24T02:36:24.351Z,9.745141
2023-02-24T02:37:24.322Z,9.745409
2023-02-24T02:38:24.312Z,9.745467
2023-02-24T02:39:24.304Z,9.745420
2023-02-24T02:40:24.306Z,9.745581
2023-02-24T02:41:24.314Z,9.745754
2023-02-24T02:42:24.284Z,9.746197
2023-02-24T02:43:24.277Z,9.745607
2023-02-24T02:44:24.271Z,9.745440
2023-02-24T02:45:24.327Z,9.745440
2023-02-24T02:46:24.280Z,9.745040
2023-02-24T02:47:24.280Z,9.745554
2023-02-24T02:48:24.227Z,9.745595
2023-02-24T02:49:25.228Z,9.745495
2023-02-24T02:50:24.231Z,9.745703
2023-02-24T02:51:24.244Z,9.745634
2023-02-24T02:52:24.213Z,9.745613
2023-02-24T02:53:24.197Z,9.745749
2023-02-24T02:54:24.189Z,9.745663
2023-02-24T02:55:24.181Z,9.745702
2023-02-24T02:56:24.201Z,9.745797
2023-02-24T02:57:24.163Z,9.745625
2023-02-24T02:58:24.154Z,9.745693
2023-02-24T02:59:24.147Z,9.745642
2023-02-24T03:00:24.148Z,9.745572
2023-02-24T03:01:24.337Z,9.745515
2023-02-24T03:02:24.150Z,9.745635
2023-02-24T03:03:24.117Z,9.745644
2023-02-24T03:04:24.137Z,9.745745
2023-02-24T03:05:24.103Z,9.745815
2023-02-24T03:06:24.101Z,9.745827
2023-02-24T03:07:24.109Z,9.745707
2023-02-24T03:08:24.079Z,9.745634
2023-02-24T03:09:24.083Z,9.745631
2023-02-24T03:10:24.074Z,9.745542
2023-02-24T03:11:24.056Z,9.745661
2023-02-24T03:12:24.068Z,9.745701
2023-02-24T03:13:24.039Z,9.745791
2023-02-24T03:14:24.030Z,9.745666
2023-02-24T03:15:24.029Z,9.745640
2023-02-24T03:16:24.039Z,9.745629
2023-02-24T03:17:24.032Z,9.745599
2023-02-24T03:18:24.001Z,9.745522
2023-02-24T03:19:23.987Z,9.745767
2023-02-24T03:20:23.993Z,9.745586
2023-02-24T03:21:23.973Z,9.745417
2023-02-24T03:22:23.993Z,9.745800
2023-02-24T03:23:23.958Z,9.745764
2023-02-24T03:24:23.955Z,9.745700
2023-02-24T03:25:23.953Z,9.745523
2023-02-24T03:26:23.945Z,9.745467
2023-02-24T03:27:23.974Z,9.745489
2023-02-24T03:28:24.928Z,9.745529
2023-02-24T03:29:24.223Z,9.745259
2023-02-24T03:30:23.913Z,9.745453
2023-02-24T03:31:24.560Z,9.745564
2023-02-24T03:32:24.039Z,9.745789
2023-02-24T03:33:23.901Z,9.745529
2023-02-24T03:34:23.912Z,9.745532
2023-02-24T03:35:23.878Z,9.745658
2023-02-24T03:36:23.867Z,9.745575
2023-02-24T03:37:23.896Z,9.745594
2023-02-24T03:38:23.853Z,9.745531
2023-02-24T03:39:23.844Z,9.745618
2023-02-24T03:40:23.832Z,9.745535
2023-02-24T03:41:23.828Z,9.745296
2023-02-24T03:42:23.855Z,9.745515
2023-02-24T03:43:23.812Z,9.745522
2023-02-24T03:44:23.800Z,9.745764
2023-02-24T03:45:23.793Z,9.745216
2023-02-24T03:46:23.826Z,9.745520
2023-02-24T03:47:23.807Z,9.745494
2023-02-24T03:48:23.777Z,9.745220
2023-02-24T03:49:23.766Z,9.745763
2023-02-24T03:50:23.752Z,9.745787
2023-02-24T03:51:23.746Z,9.745597
2023-02-24T03:52:23.771Z,9.745592
2023-02-24T03:53:23.728Z,9.745563
2023-02-24T03:54:23.727Z,9.745410
2023-02-24T03:55:23.713Z,9.745659
2023-02-24T03:56:23.709Z,9.745214
2023-02-24T03:57:23.731Z,9.745382
2023-02-24T03:58:23.695Z,9.745709
2023-02-24T03:59:23.704Z,9.745533
2023-02-24T04:00:23.682Z,9.745671
2023-02-24T04:01:23.867Z,9.745570
2023-02-24T04:02:23.708Z,9.745584
2023-02-24T04:03:23.675Z,9.745560
2023-02-24T04:04:23.707Z,9.745832
2023-02-24T04:05:23.643Z,9.745509
2023-02-24T04:06:23.645Z,9.745452
2023-02-24T04:07:23.624Z,9.745554
2023-02-24T04:08:23.647Z,9.745275
2023-02-24T04:09:23.616Z,9.745352
2023-02-24T04:10:23.640Z,9.745625
2023-02-24T04:11:23.609Z,9.745700
2023-02-24T04:12:24.599Z,9.745742
2023-02-24T04:13:23.598Z,9.745244
2023-02-24T04:14:23.571Z,9.745374
2023-02-24T04:15:23.564Z,9.745399
2023-02-24T04:16:23.550Z,9.745424
2023-02-24T04:17:23.541Z,9.745811
2023-02-24T04:18:23.561Z,9.745775
2023-02-24T04:19:23.524Z,9.745642
2023-02-24T04:20:23.519Z,9.745427
2023-02-24T04:21:23.519Z,9.745130
2023-02-24T04:22:23.501Z,9.745347
2023-02-24T04:23:23.530Z,9.745484
2023-02-24T04:24:23.494Z,9.745312
2023-02-24T04:25:23.501Z,9.745400
2023-02-24T04:26:23.473Z,9.745581
2023-02-24T04:27:23.466Z,9.745658
2023-02-24T04:28:23.506Z,9.745943
2023-02-24T04:29:23.449Z,9.745804
2023-02-24T04:30:23.442Z,9.745763
2023-02-24T04:31:23.864Z,9.746239
2023-02-24T04:32:23.513Z,9.745975
2023-02-24T04:33:23.478Z,9.745741
2023-02-24T04:34:23.419Z,9.746660
2023-02-24T04:35:23.438Z,9.747285
2023-02-24T04:36:23.395Z,9.747285
2023-02-24T04:37:23.403Z,9.745989
2023-02-24T04:38:23.404Z,9.745708
2023-02-24T04:39:23.407Z,9.745630
2023-02-24T04:40:23.386Z,9.745910
2023-02-24T04:41:23.781Z,9.745844
2023-02-24T04:42:23.354Z,9.745533
2023-02-24T04:43:23.369Z,9.745223
2023-02-24T04:44:23.331Z,9.745455
2023-02-24T04:45:23.555Z,9.745283
2023-02-24T04:46:23.445Z,9.745374
2023-02-24T04:47:23.319Z,9.745573
2023-02-24T04:48:23.330Z,9.745667
2023-02-24T04:49:23.301Z,9.745162
2023-02-24T04:50:23.294Z,9.745165
2023-02-24T04:51:23.462Z,9.745824
2023-02-24T04:52:23.277Z,9.745798
2023-02-24T04:53:23.292Z,9.745798
2023-02-24T04:54:23.256Z,9.746426
2023-02-24T04:55:23.258Z,9.746861
2023-02-24T04:56:23.256Z,9.746214
2023-02-24T04:57:23.233Z,9.746191
2023-02-24T04:58:23.263Z,9.746705
2023-02-24T04:59:23.231Z,9.746487
2023-02-24T05:00:23.231Z,9.746196
2023-02-24T05:01:23.344Z,9.746124
2023-02-24T05:02:23.207Z,9.745720
2023-02-24T05:03:23.293Z,9.746153
2023-02-24T05:04:23.201Z,9.746264
2023-02-24T05:05:23.175Z,9.745841
2023-02-24T05:06:23.168Z,9.746072
2023-02-24T05:07:23.159Z,9.746020
2023-02-24T05:08:23.205Z,9.745864
2023-02-24T05:09:23.153Z,9.746055
2023-02-24T05:10:23.142Z,9.745841
2023-02-24T05:11:23.649Z,9.746089
2023-02-24T05:12:23.120Z,9.745871
2023-02-24T05:13:23.149Z,9.745247
2023-02-24T05:14:23.107Z,9.744591
2023-02-24T05:15:23.098Z,9.745306
2023-02-24T05:16:23.192Z,9.745516
2023-02-24T05:17:23.084Z,9.745462
2023-02-24T05:18:23.084Z,9.744894
2023-02-24T05:19:23.096Z,9.745333
2023-02-24T05:20:23.057Z,9.745259
2023-02-24T05:21:23.202Z,9.745502
2023-02-24T05:22:23.049Z,9.745645
2023-02-24T05:23:23.038Z,9.745279
2023-02-24T05:24:23.058Z,9.745608
2023-02-24T05:25:23.029Z,9.745576
2023-02-24T05:26:23.016Z,9.745397
2023-02-24T05:27:23.010Z,9.745542
2023-02-24T05:28:23.004Z,9.745520
2023-02-24T05:29:23.020Z,9.745448
2023-02-24T05:30:23.097Z,9.745545
2023-02-24T05:31:23.446Z,9.745689
2023-02-24T05:32:23.125Z,9.745691
2023-02-24T05:33:22.964Z,9.745317
2023-02-24T05:34:22.985Z,9.745474
2023-02-24T05:35:22.953Z,9.745558
2023-02-24T05:36:22.943Z,9.745522
2023-02-24T05:37:22.933Z,9.745474
2023-02-24T05:38:22.939Z,9.745456
2023-02-24T05:39:22.941Z,9.745584
2023-02-24T05:40:22.916Z,9.745401
2023-02-24T05:41:23.207Z,9.745462
2023-02-24T05:42:22.891Z,9.745472
2023-02-24T05:43:22.877Z,9.745625
2023-02-24T05:44:22.909Z,9.745139
2023-02-24T05:45:22.890Z,9.745493
2023-02-24T05:46:22.892Z,9.745595
2023-02-24T05:47:22.852Z,9.745528
2023-02-24T05:48:22.844Z,9.745506
2023-02-24T05:49:22.858Z,9.745530
2023-02-24T05:50:22.823Z,9.745625
2023-02-24T05:51:23.136Z,9.745550
2023-02-24T05:52:22.810Z,9.745468
2023-02-24T05:53:22.804Z,9.745422
2023-02-24T05:54:22.831Z,9.745460
2023-02-24T05:55:22.788Z,9.745550
2023-02-24T05:56:22.780Z,9.745670
2023-02-24T05:57:22.776Z,9.745749
2023-02-24T05:58:22.769Z,9.745768
2023-02-24T05:59:22.782Z,9.745590
2023-02-24T06:00:22.740Z,9.745422
2023-02-24T06:01:22.952Z,9.745386
2023-02-24T06:02:22.754Z,9.745299
2023-02-24T06:03:22.733Z,9.745274
2023-02-24T06:04:22.739Z,9.745535
2023-02-24T06:05:22.715Z,9.745430
2023-02-24T06:06:22.700Z,9.745659
2023-02-24T06:07:22.748Z,9.745438
2023-02-24T06:08:22.686Z,9.745187
2023-02-24T06:09:22.698Z,9.745485
2023-02-24T06:10:22.682Z,9.745491
2023-02-24T06:11:23.134Z,9.745314
2023-02-24T06:12:22.661Z,9.745501
2023-02-24T06:13:22.640Z,9.745524
2023-02-24T06:14:22.663Z,9.745641
2023-02-24T06:15:22.633Z,9.745758
2023-02-24T06:16:22.658Z,9.745587
2023-02-24T06:17:22.622Z,9.745693
2023-02-24T06:18:22.612Z,9.746039
2023-02-24T06:19:22.625Z,9.745685
2023-02-24T06:20:22.588Z,9.745340
2023-02-24T06:21:22.832Z,9.745350
2023-02-24T06:22:22.584Z,9.745426
2023-02-24T06:23:22.566Z,9.745574
2023-02-24T06:24:22.593Z,9.745308
2023-02-24T06:25:22.555Z,9.745556
2023-02-24T06:26:22.540Z,9.745625
2023-02-24T06:27:22.548Z,9.745856
2023-02-24T06:28:22.533Z,9.745528
2023-02-24T06:29:22.547Z,9.745554
2023-02-24T06:30:22.539Z,9.745676
2023-02-24T06:31:23.008Z,9.745611
2023-02-24T06:32:22.599Z,9.745446
2023-02-24T06:33:22.498Z,9.745607
2023-02-24T06:34:22.508Z,9.745708
2023-02-24T06:35:22.478Z,9.745583
2023-02-24T06:36:22.471Z,9.745458
2023-02-24T06:37:22.458Z,9.745516
2023-02-24T06:38:22.460Z,9.745562
2023-02-24T06:39:22.476Z,9.745569
2023-02-24T06:40:22.445Z,9.745774
2023-02-24T06:41:22.614Z,9.745516
2023-02-24T06:42:22.423Z,9.745565
2023-02-24T06:43:22.424Z,9.745600
2023-02-24T06:44:22.424Z,9.745615
2023-02-24T06:45:23.410Z,9.745654
2023-02-24T06:46:22.423Z,9.745396
2023-02-24T06:47:22.394Z,9.745424
2023-02-24T06:48:22.380Z,9.745473
2023-02-24T06:49:22.406Z,9.745415
2023-02-24T06:50:22.375Z,9.745409
2023-02-24T06:51:22.582Z,9.745623
2023-02-24T06:52:22.349Z,9.745631
2023-02-24T06:53:22.352Z,9.745474
2023-02-24T06:54:22.369Z,9.745621
2023-02-24T06:55:22.329Z,9.745567
2023-02-24T06:56:22.325Z,9.745532
2023-02-24T06:57:22.317Z,9.745494
2023-02-24T06:58:22.306Z,9.745563
2023-02-24T06:59:22.333Z,9.745812
2023-02-24T07:00:22.295Z,9.745637
2023-02-24T07:01:22.700Z,9.745328
2023-02-24T07:02:22.276Z,9.745499
2023-02-24T07:03:22.268Z,9.745609
2023-02-24T07:04:22.326Z,9.745647
2023-02-24T07:05:22.260Z,9.745626
2023-02-24T07:06:22.247Z,9.745525
2023-02-24T07:07:22.235Z,9.745639
2023-02-24T07:08:22.229Z,9.745511
2023-02-24T07:09:22.255Z,9.745623
2023-02-24T07:10:22.207Z,9.745030
2023-02-24T07:11:22.568Z,9.745318
2023-02-24T07:12:22.197Z,9.745503
2023-02-24T07:13:22.186Z,9.745387
2023-02-24T07:14:22.208Z,9.745248
2023-02-24T07:15:22.175Z,9.745577
2023-02-24T07:16:22.196Z,9.745443
2023-02-24T07:17:22.174Z,9.745161
2023-02-24T07:18:22.143Z,9.745356
2023-02-24T07:19:22.145Z,9.745347
2023-02-24T07:20:22.158Z,9.745412
2023-02-24T07:21:22.400Z,9.745130
2023-02-24T07:22:22.117Z,9.745093
2023-02-24T07:23:22.102Z,9.745247
2023-02-24T07:24:22.109Z,9.745188
2023-02-24T07:25:22.119Z,9.745245
2023-02-24T07:26:22.084Z,9.745314
2023-02-24T07:27:22.680Z,9.745305
2023-02-24T07:28:22.072Z,9.745243
2023-02-24T07:29:22.091Z,9.745226
2023-02-24T07:30:22.079Z,9.745290
2023-02-24T07:31:22.350Z,9.745265
2023-02-24T07:32:22.053Z,9.745395
2023-02-24T07:33:22.030Z,9.745457
2023-02-24T07:34:22.025Z,9.745401
2023-02-24T07:35:22.041Z,9.745474
2023-02-24T07:36:22.012Z,9.745489
2023-02-24T07:37:21.998Z,9.745090
2023-02-24T07:38:21.990Z,9.745054
2023-02-24T07:39:22.012Z,9.745316
2023-02-24T07:40:22.007Z,9.745213
2023-02-24T07:41:22.354Z,9.745253
2023-02-24T07:42:21.958Z,9.745279
2023-02-24T07:43:21.952Z,9.745333
2023-02-24T07:44:21.951Z,9.744997
2023-02-24T07:45:21.978Z,9.745326
2023-02-24T07:46:22.000Z,9.745152
2023-02-24T07:47:21.920Z,9.744928
2023-02-24T07:48:21.908Z,9.745323
2023-02-24T07:49:21.903Z,9.745210
2023-02-24T07:50:21.915Z,9.745435
2023-02-24T07:51:22.241Z,9.745427
2023-02-24T07:52:21.876Z,9.745208
2023-02-24T07:53:21.866Z,9.744956
2023-02-24T07:54:21.863Z,9.745420
2023-02-24T07:55:21.871Z,9.746187
2023-02-24T07:56:21.843Z,9.746045
2023-02-24T07:57:21.832Z,9.745849
2023-02-24T07:58:21.831Z,9.745672
2023-02-24T07:59:21.818Z,9.745580
2023-02-24T08:00:21.835Z,9.745419
2023-02-24T08:01:22.064Z,9.745790
2023-02-24T08:02:21.812Z,9.745621
2023-02-24T08:03:21.782Z,9.745018
2023-02-24T08:04:21.782Z,9.745945
2023-02-24T08:05:21.856Z,9.745788
2023-02-24T08:06:21.765Z,9.745764
2023-02-24T08:07:21.757Z,9.745559
2023-02-24T08:08:21.744Z,9.745667
2023-02-24T08:09:21.738Z,9.745848
2023-02-24T08:10:21.758Z,9.745681
2023-02-24T08:11:21.918Z,9.745476
2023-02-24T08:12:22.323Z,9.744720
2023-02-24T08:13:21.707Z,9.745401
2023-02-24T08:14:21.697Z,9.745330
2023-02-24T08:15:21.716Z,9.745512
2023-02-24T08:16:21.732Z,9.745567
2023-02-24T08:17:21.687Z,9.745596
2023-02-24T08:18:21.672Z,9.745416
2023-02-24T08:19:21.658Z,9.745297
2023-02-24T08:20:21.689Z,9.745340
2023-02-24T08:21:21.924Z,9.745549
2023-02-24T08:22:21.629Z,9.745633
2023-02-24T08:23:21.621Z,9.745956
2023-02-24T08:24:23.167Z,9.745679
2023-02-24T08:25:21.632Z,9.745465
2023-02-24T08:26:21.630Z,9.745693
2023-02-24T08:27:21.596Z,9.745674
2023-02-24T08:28:21.592Z,9.745224
2023-02-24T08:29:21.575Z,9.745337
2023-02-24T08:30:21.701Z,9.745290
2023-02-24T08:31:21.963Z,9.745468
2023-02-24T08:32:21.657Z,9.745468
2023-02-24T08:33:21.551Z,9.745514
2023-02-24T08:34:21.548Z,9.745664
2023-02-24T08:35:21.580Z,9.745798
2023-02-24T08:36:21.530Z,9.746027
2023-02-24T08:37:21.523Z,9.745942
2023-02-24T08:38:21.516Z,9.745467
2023-02-24T08:39:21.514Z,9.745586
2023-02-24T08:40:21.528Z,9.745587
2023-02-24T08:41:22.060Z,9.745676
2023-02-24T08:42:21.487Z,9.745776
2023-02-24T08:43:21.477Z,9.745524
2023-02-24T08:44:21.476Z,9.745613
2023-02-24T08:45:21.488Z,9.745690
2023-02-24T08:46:21.646Z,9.745585
2023-02-24T08:47:21.446Z,9.745695
2023-02-24T08:48:21.435Z,9.745621
2023-02-24T08:49:21.436Z,9.745477
2023-02-24T08:50:21.458Z,9.745400
2023-02-24T08:51:21.668Z,9.745501
2023-02-24T08:52:21.410Z,9.745524
2023-02-24T08:53:21.408Z,9.745404
2023-02-24T08:54:21.386Z,9.745717
2023-02-24T08:55:21.415Z,9.745551
2023-02-24T08:56:21.632Z,9.745584
2023-02-24T08:57:21.378Z,9.745304
2023-02-24T08:58:21.366Z,9.745510
2023-02-24T08:59:21.350Z,9.745617
2023-02-24T09:00:21.343Z,9.745725
2023-02-24T09:01:21.687Z,9.745749
2023-02-24T09:02:21.343Z,9.745648
2023-02-24T09:03:21.317Z,9.745681
2023-02-24T09:04:21.394Z,9.745604
2023-02-24T09:05:21.304Z,9.745675
2023-02-24T09:06:21.320Z,9.745694
2023-02-24T09:07:21.287Z,9.745614
2023-02-24T09:08:21.281Z,9.745729
2023-02-24T09:09:21.454Z,9.745676
2023-02-24T09:10:21.270Z,9.745537
2023-02-24T09:11:21.486Z,9.745534
2023-02-24T09:12:21.254Z,9.745642
2023-02-24T09:13:21.240Z,9.745578
2023-02-24T09:14:27.226Z,9.745585
2023-02-24T09:15:23.233Z,9.745622
2023-02-24T09:16:21.287Z,9.745602
2023-02-24T09:17:21.215Z,9.745697
2023-02-24T09:18:21.233Z,9.745623
2023-02-24T09:19:21.193Z,9.745866
2023-02-24T09:20:21.180Z,9.745697
2023-02-24T09:21:22.493Z,9.745840
2023-02-24T09:22:21.784Z,9.745775
2023-02-24T09:23:22.170Z,9.745664
2023-02-24T09:24:21.155Z,9.745773
2023-02-24T09:25:21.200Z,9.745623
2023-02-24T09:26:21.167Z,9.745646
2023-02-24T09:27:21.133Z,9.745939
2023-02-24T09:28:21.145Z,9.745908
2023-02-24T09:29:21.114Z,9.745712
2023-02-24T09:30:21.105Z,9.745584
2023-02-24T09:31:21.614Z,9.745761
2023-02-24T09:32:21.193Z,9.745749
2023-02-24T09:33:21.129Z,9.745583
2023-02-24T09:34:21.074Z,9.745550
2023-02-24T09:35:21.072Z,9.745694
2023-02-24T09:36:21.095Z,9.745564
2023-02-24T09:37:21.051Z,9.745553
2023-02-24T09:38:21.045Z,9.745522
2023-02-24T09:39:21.040Z,9.745878
2023-02-24T09:40:21.030Z,9.745710
2023-02-24T09:41:21.052Z,9.745482
2023-02-24T09:42:21.008Z,9.745549
2023-02-24T09:43:21.011Z,9.745562
2023-02-24T09:44:20.992Z,9.745791
2023-02-24T09:45:21.020Z,9.745561
2023-02-24T09:46:21.108Z,9.745640
2023-02-24T09:47:20.970Z,9.745488
2023-02-24T09:48:20.969Z,9.745530
2023-02-24T09:49:20.951Z,9.746086
2023-02-24T09:50:46.951Z,9.745689
2023-02-24T09:51:23.461Z,9.745628
2023-02-24T09:52:20.949Z,9.745790
2023-02-24T09:53:20.918Z,9.745708
2023-02-24T09:54:20.931Z,9.745830
2023-02-24T09:55:20.912Z,9.745768
2023-02-24T09:56:20.925Z,9.745665
2023-02-24T09:57:20.907Z,9.745488
2023-02-24T09:58:20.990Z,9.745926
2023-02-24T09:59:20.884Z,9.745491
2023-02-24T10:00:20.868Z,9.745832
2023-02-24T10:01:21.653Z,9.745897
2023-02-24T10:02:20.890Z,9.745765
2023-02-24T10:03:20.852Z,9.745745
2023-02-24T10:04:21.888Z,9.745544
2023-02-24T10:05:21.828Z,9.745563
2023-02-24T10:06:21.117Z,9.745554
2023-02-24T10:07:20.808Z,9.745743
2023-02-24T10:08:20.810Z,9.745591
2023-02-24T10:09:20.795Z,9.745960
2023-02-24T10:10:20.805Z,9.746525
2023-02-24T10:11:21.137Z,9.745794
2023-02-24T10:12:20.834Z,9.745902
2023-02-24T10:13:20.813Z,9.745792
2023-02-24T10:14:20.764Z,9.745783
2023-02-24T10:15:20.785Z,9.745676
2023-02-24T10:16:20.743Z,9.745701
2023-02-24T10:17:22.660Z,9.745511
2023-02-24T10:18:21.727Z,9.745747
2023-02-24T10:19:20.719Z,9.745744
2023-02-24T10:20:20.761Z,9.745782
2023-02-24T10:21:20.981Z,9.745751
2023-02-24T10:22:20.717Z,9.745554
2023-02-24T10:23:20.687Z,9.745696
2023-02-24T10:24:20.685Z,9.745302
2023-02-24T10:25:21.675Z,9.745414
2023-02-24T10:26:21.673Z,9.745735
2023-02-24T10:27:20.685Z,9.745202
2023-02-24T10:28:20.650Z,9.745562
2023-02-24T10:29:20.644Z,9.745584
2023-02-24T10:30:20.770Z,9.745694
2023-02-24T10:31:21.045Z,9.745722
2023-02-24T10:32:20.819Z,9.745462
2023-02-24T10:33:20.695Z,9.745574
2023-02-24T10:34:23.152Z,9.745550
2023-02-24T10:35:20.617Z,9.745740
2023-02-24T10:36:20.612Z,9.745280
2023-02-24T10:37:28.131Z,9.745665
2023-02-24T10:38:22.571Z,9.745687
2023-02-24T10:39:20.573Z,9.745778
2023-02-24T10:40:20.545Z,9.745469
2023-02-24T10:41:20.910Z,9.745623
2023-02-24T10:42:20.615Z,9.745909
2023-02-24T10:43:20.605Z,9.746005
2023-02-24T10:44:20.557Z,9.745399
2023-02-24T10:45:22.007Z,9.745486
2023-02-24T10:46:26.468Z,9.745697
2023-02-24T10:47:22.501Z,9.745798
2023-02-24T10:48:26.729Z,9.745558
2023-02-24T10:49:22.478Z,9.745418
2023-02-24T10:50:20.484Z,9.745418
2023-02-24T10:51:21.019Z,9.745418
2023-02-24T10:52:20.478Z,9.745525
2023-02-24T10:53:20.462Z,9.745594
2023-02-24T10:54:20.437Z,9.745630
2023-02-24T10:55:20.432Z,9.746405
2023-02-24T10:56:20.726Z,9.746714
2023-02-24T10:57:20.450Z,9.746576
2023-02-24T10:58:20.406Z,9.745984
2023-02-24T10:59:20.428Z,9.745766
2023-02-24T11:00:20.477Z,9.745698
2023-02-24T11:01:20.799Z,9.745214
2023-02-24T11:02:21.468Z,9.745491
2023-02-24T11:03:32.443Z,9.745583
2023-02-24T11:04:22.361Z,9.745562
2023-02-24T11:05:20.350Z,9.745520
2023-02-24T11:06:20.353Z,9.745533
2023-02-24T11:07:20.385Z,9.745502
2023-02-24T11:08:20.360Z,9.745509
2023-02-24T11:09:20.341Z,9.745282
2023-02-24T11:10:20.322Z,9.745497
2023-02-24T11:11:20.838Z,9.745370
2023-02-24T11:12:20.297Z,9.745436
2023-02-24T11:13:20.322Z,9.745491
2023-02-24T11:14:20.296Z,9.745432
2023-02-24T11:15:20.274Z,9.745401
2023-02-24T11:16:20.310Z,9.745333
2023-02-24T11:17:20.254Z,9.745409
2023-02-24T11:18:20.273Z,9.745435
2023-02-24T11:19:20.240Z,9.745497
2023-02-24T11:20:20.244Z,9.745478
2023-02-24T11:21:20.532Z,9.745444
2023-02-24T11:22:20.211Z,9.745508
2023-02-24T11:23:20.261Z,9.745377
2023-02-24T11:24:20.206Z,9.745262
2023-02-24T11:25:20.189Z,9.745296
2023-02-24T11:26:20.180Z,9.745371
2023-02-24T11:27:20.175Z,9.745380
2023-02-24T11:28:20.189Z,9.745385
2023-02-24T11:29:20.153Z,9.745461
2023-02-24T11:30:20.150Z,9.745454
2023-02-24T11:31:20.736Z,9.745359
2023-02-24T11:32:20.191Z,9.745113
2023-02-24T11:33:20.154Z,9.745255
2023-02-24T11:34:20.115Z,9.745376
2023-02-24T11:35:20.117Z,9.745540
2023-02-24T11:36:20.108Z,9.745472
2023-02-24T11:37:20.108Z,9.745520
2023-02-24T11:38:20.116Z,9.745504
2023-02-24T11:39:21.670Z,9.745267
2023-02-24T11:40:21.076Z,9.745471
2023-02-24T11:41:20.236Z,9.745324
2023-02-24T11:42:20.059Z,9.745367
2023-02-24T11:43:21.078Z,9.745288
2023-02-24T11:44:20.051Z,9.745412